Anamoose, North Dakota
Current Conditions -  °F | °C
As of 10:35 AM on Wednesday 26 Nov 2014 (Local Time) from K5H4 Reporting Station
Few Clouds Few Clouds  
Wind Chill: -14°   Ceiling: Unl
Heat Index:   Visibility: 8mi
Dew Point: -2°   Wind: 9mph
Humidity: 85%   Direction: 30°NNE
Pressure: 30.38"   Gusts: NA
Location:  47.88°N, 100.24°W
Report Text: K5H4 261635Z AUTO 03008KT 8SM FEW006 FEW085 M17/M19 A3038 RMK AO2
Loading
Personal Weather Stations






























Interactive Weather Map New forecast layout! Learn more

10-Day Weather Forecast

Advertisements
Track Severe Weather on mobile